Flight Track Log - Related Links

Times and Time Zones

All times are in EST time to prevent confusion due to time zone crossing. See the ASH2892 flight status page for this flight to view local times or setup timezone preferences in your user account.

Time Position Orientation Groundspeed Altitude Reporting Facility
EST Latitude Longitude Course Direction KTS MPH feet Rate Location/Type
Mon 11:15:13 AM 40.0014 -82.8742 181° South 158 182 1,400  Level Indianapolis Center
Mon 11:16:22 AM 39.9967 -82.8125 96° East 183 211 3,700 1,800 Climbing Indianapolis Center
Mon 11:17:23 AM 39.9442 -82.7794 154° Southeast 243 280 5,300 2,195 Climbing Indianapolis Center
Mon 11:18:00 AM 39.6372 -82.7365 169° South  Level Estimated
Mon 11:18:25 AM 39.8647 -82.7658 173° South 271 312 8,200  Level Indianapolis Center
Mon 11:19:00 AM 39.5472 -82.6978 163° South  Level Estimated
Mon 11:19:26 AM 39.7733 -82.7456 170° South 289 333 11,400  Level Indianapolis Center
Mon 11:20:00 AM 39.4524 -82.6996 181° South  Level FlightAware Approximate
Mon 11:20:27 AM 39.6811 -82.7244 170° South 332 382 12,300  Level Indianapolis Center
Mon 11:21:29 AM 39.5794 -82.7064 172° South 363 418 14,600 2,049 Climbing Indianapolis Center
Mon 11:22:30 AM 39.4761 -82.6858 171° South 372 428 16,500 1,707 Climbing Indianapolis Center
Mon 11:23:32 AM 39.3683 -82.6642 171° South 385 443 18,100 1,463 Climbing Indianapolis Center
Mon 11:24:33 AM 39.2567 -82.6425 171° South 398 458 19,500 1,475 Climbing Indianapolis Center
Mon 11:25:34 AM 39.1433 -82.6208 172° South 408 470 21,100 1,463 Climbing Indianapolis Center
Mon 11:26:36 AM 39.0286 -82.5986 171° South 414 476 22,500 1,317 Climbing Indianapolis Center
Mon 11:27:37 AM 38.9100 -82.5781 172° South 425 489 23,800 1,279 Climbing Indianapolis Center
Mon 11:28:38 AM 38.7900 -82.5564 172° South 433 498 25,100 1,415 Climbing Indianapolis Center
Mon 11:29:40 AM 38.6450 -82.5286 171° South 440 506 26,700 1,268 Climbing Indianapolis Center
Mon 11:30:41 AM 38.5306 -82.5056 171° South 440 506 27,700 1,033 Climbing Indianapolis Center
Mon 11:31:42 AM 38.4008 -82.4825 172° South 446 513 28,800 1,024 Climbing Indianapolis Center
Mon 11:32:44 AM 38.2753 -82.4597 172° South 454 522 29,800 976 Climbing Indianapolis Center
Mon 11:33:45 AM 38.1494 -82.4367 172° South 456 525 30,800 1,033 Climbing Indianapolis Center
Mon 11:34:46 AM 38.0081 -82.4133 173° South 451 519 31,900 585 Climbing Indianapolis Center
Mon 11:35:48 AM 37.8817 -82.3883 171° South 456 525 32,000 49 Climbing Indianapolis Center
Mon 11:36:49 AM 37.7506 -82.3644 172° South 469 540 32,000  Level Indianapolis Center
Mon 11:37:51 AM 37.6206 -82.3397 171° South 469 540 32,000 -537 Level Indianapolis Center
Mon 11:38:52 AM 37.4919 -82.3183 172° South 464 534 30,900 -1,131 Descending Indianapolis Center
Mon 11:39:53 AM 37.3611 -82.2944 172° South 470 541 29,700 -927 Descending Indianapolis Center
Mon 11:40:55 AM 37.2333 -82.2708 172° South 464 534 29,000 -341 Descending Indianapolis Center
Mon 11:41:56 AM 37.1100 -82.2486 172° South 449 517 29,000  Level Indianapolis Center
Mon 11:42:57 AM 36.9861 -82.2269 172° South 446 513 29,000  Level Indianapolis Center
Mon 11:43:59 AM 36.8614 -82.2042 172° South 448 516 29,000 -390 Level Indianapolis Center
Mon 11:45:00 AM 36.7378 -82.1828 172° South 446 513 28,200 -934 Descending Indianapolis Center
Mon 11:46:01 AM 36.5947 -82.1569 172° South 443 510 27,100 -1,377 Descending Indianapolis Center
Mon 11:47:02 AM 36.4728 -82.1364 172° South 440 506 25,400 -1,512 Descending Indianapolis Center
Mon 11:48:04 AM 36.3533 -82.0753 158° South 466 536 24,000 -1,366 Descending Indianapolis Center
Mon 11:49:05 AM 36.2408 -82.0019 152° Southeast 460 529 22,600 -1,770 Descending Indianapolis Center
Mon 11:50:06 AM 36.1286 -81.9275 152° Southeast 457 526 20,400 -2,028 Descending Indianapolis Center
Mon 11:51:30 AM 35.9800 -81.8294 152° Southeast 460 529 17,700 -2,092 Descending Atlanta Center
Mon 11:52:38 AM 35.8533 -81.7483 153° Southeast 430 495 15,100 -2,270 Descending Atlanta Center
Mon 11:53:21 AM 35.7711 -81.6969 153° Southeast 427 491 13,500 -1,882 Descending Atlanta Center
Mon 11:53:29 AM 35.7708 -81.6917 94° East 427 491 13,500 -1,970 Level Atlanta Center
Mon 11:54:28 AM 35.6694 -81.6281 153° Southeast 374 430 11,300 -2,100 Descending Atlanta Center
Mon 11:54:29 AM 35.6781 -81.6331 335° Northwest 396 456 11,400 -295 Climbing Atlanta Center
Mon 11:55:29 AM 35.5911 -81.5667 148° Southeast 318 366 11,000 -313 Descending Atlanta Center
Mon 11:56:24 AM 35.5622 -81.4783 112° Southeast 316 364 10,800 -200 Descending Atlanta Center
Mon 11:56:29 AM 35.5578 -81.4681 118° Southeast 300 345 10,800 -923 Level Atlanta Center
Mon 11:57:29 AM 35.5742 -81.3578 80° East 288 331 9,800 -1,050 Descending Atlanta Center
Mon 11:58:29 AM 35.5864 -81.2475 82° East 298 343 8,700 -1,119 Descending Atlanta Center
Mon 11:59:27 AM 35.5886 -81.1581 88° East 283 326 7,600 -1,100 Descending Atlanta Center
Mon 11:59:29 AM 35.5906 -81.1556 46° Northeast 304 350 7,600 -1,180 Level Atlanta Center
Mon 12:00:28 PM 35.5717 -81.0694 105° East 264 304 6,400 -1,200 Descending Atlanta Center
Mon 12:00:29 PM 35.5714 -81.0592 92° East 291 335 6,400 -984 Level Atlanta Center
Mon 12:01:29 PM 35.5328 -81.0094 134° Southeast 248 285 5,400 -1,182 Descending Atlanta Center
Mon 12:01:35 PM 35.5181 -81.0100 182° South 230 265 5,100 5,600 Descending Atlanta Center
Mon 12:02:29 PM 35.4972 -80.9267 107° East 248 285 11,000 -98 Climbing Atlanta Center
Mon 12:02:36 PM 35.4633 -80.9867 235° Southwest 198 228 5,000 -5,824 Descending Atlanta Center
Mon 12:03:37 PM 35.4028 -80.9864 180° South 193 222 4,400 -879 Descending Atlanta Center
Mon 12:04:32 PM 35.3589 -80.9828 176° South 195 224 3,300 -991 Descending Atlanta Center
Mon 12:05:32 PM 35.3128 -80.9769 174° South 148 170 2,500 -793 Descending Atlanta Center
Mon 12:06:33 PM 35.2731 -80.9733 176° South 133 153 1,700 -738 Descending Atlanta Center
Mon 12:07:34 PM 35.2336 -80.9722 179° South 143 165 1,000 -689 Descending Atlanta Center

Login

Don't have an account? Register now (free) for customized features, flight alerts, and more!